createdAt,value
2019-04-05T00:01:45.493Z,42.00
2019-04-05T00:04:38.867Z,42.50
2019-04-05T00:07:33.200Z,42.20
2019-04-05T00:10:26.396Z,42.60
2019-04-05T00:13:19.158Z,42.60
2019-04-05T00:16:12.615Z,42.60
2019-04-05T00:19:04.864Z,42.90
2019-04-05T00:21:57.436Z,42.70
2019-04-05T00:24:52.542Z,42.50
2019-04-05T00:27:44.685Z,42.40
2019-04-05T00:30:37.323Z,42.60
2019-04-05T00:33:29.380Z,42.40
2019-04-05T00:36:21.835Z,42.40
2019-04-05T00:39:14.087Z,42.50
2019-04-05T00:42:06.468Z,42.50
2019-04-05T00:44:59.095Z,42.50
2019-04-05T00:47:51.942Z,42.50
2019-04-05T00:50:43.963Z,42.80
2019-04-05T00:53:36.485Z,42.60
2019-04-05T00:56:28.449Z,42.50
2019-04-05T00:59:20.691Z,42.50
2019-04-05T01:02:12.879Z,42.70
2019-04-05T01:05:05.197Z,42.50
2019-04-05T01:07:57.543Z,42.80
2019-04-05T01:10:49.869Z,42.70
2019-04-05T01:13:42.851Z,42.70
2019-04-05T01:16:35.065Z,43.00
2019-04-05T01:19:28.259Z,42.70
2019-04-05T01:22:21.723Z,42.80
2019-04-05T01:25:14.054Z,43.20
2019-04-05T01:28:06.271Z,43.20
2019-04-05T01:31:00.275Z,43.60
2019-04-05T01:33:52.687Z,43.10
2019-04-05T01:36:45.123Z,43.40
2019-04-05T01:39:37.121Z,43.40
2019-04-05T01:42:29.870Z,43.50
2019-04-05T01:45:23.931Z,43.60
2019-04-05T01:48:16.272Z,43.30
2019-04-05T01:51:08.602Z,44.00
2019-04-05T01:54:00.904Z,44.20
2019-04-05T01:56:53.265Z,44.10
2019-04-05T01:59:45.525Z,44.30
2019-04-05T02:02:39.014Z,44.20
2019-04-05T02:05:31.657Z,44.40
2019-04-05T02:08:24.068Z,44.40
2019-04-05T02:11:17.682Z,44.30
2019-04-05T02:14:10.432Z,44.80
2019-04-05T02:17:05.575Z,44.40
2019-04-05T02:20:26.764Z,44.30
2019-04-05T02:23:30.816Z,44.30
2019-04-05T02:26:22.859Z,44.70
2019-04-05T02:29:23.911Z,44.70
2019-04-05T02:32:17.911Z,44.40
2019-04-05T02:35:20.941Z,44.50
2019-04-05T02:38:15.546Z,44.70
2019-04-05T02:41:08.230Z,44.60
2019-04-05T02:44:09.881Z,45.10
2019-04-05T02:47:11.456Z,44.90
2019-04-05T02:50:09.979Z,44.80
2019-04-05T02:53:03.562Z,44.60
2019-04-05T02:55:56.178Z,45.00
2019-04-05T02:58:49.841Z,44.30
2019-04-05T03:01:43.544Z,44.70
2019-04-05T03:04:36.154Z,44.90
2019-04-05T03:07:29.320Z,44.80
2019-04-05T03:10:46.994Z,44.90
2019-04-05T03:13:43.542Z,44.90
2019-04-05T03:16:43.586Z,44.60
2019-04-05T03:19:37.857Z,45.30
2019-04-05T03:22:35.382Z,45.20
2019-04-05T03:25:30.310Z,45.30
2019-04-05T03:28:23.378Z,45.70
2019-04-05T03:31:23.988Z,45.20
2019-04-05T03:34:17.996Z,45.30
2019-04-05T03:37:11.381Z,45.80
2019-04-05T03:40:06.995Z,45.50
2019-04-05T03:43:14.473Z,46.60
2019-04-05T03:46:12.727Z,46.10
2019-04-05T03:49:13.088Z,46.60
2019-04-05T03:52:09.302Z,46.20
2019-04-05T03:55:10.271Z,45.80
2019-04-05T03:58:09.546Z,46.50
2019-04-05T04:01:04.228Z,46.30
2019-04-05T04:04:01.052Z,45.80
2019-04-05T04:07:13.619Z,45.60
2019-04-05T04:10:25.801Z,46.60
2019-04-05T04:13:25.503Z,46.00
2019-04-05T04:16:19.449Z,45.90
2019-04-05T04:19:15.685Z,45.60
2019-04-05T04:22:24.717Z,45.70
2019-04-05T04:25:18.987Z,45.80
2019-04-05T04:28:18.832Z,45.40
2019-04-05T04:31:14.729Z,45.90
2019-04-05T04:34:15.448Z,45.60
2019-04-05T04:37:12.034Z,46.40
2019-04-05T04:40:07.942Z,46.00
2019-04-05T04:43:00.866Z,45.90
2019-04-05T04:46:05.050Z,45.70
2019-04-05T04:49:00.891Z,45.70
2019-04-05T04:51:56.654Z,45.80
2019-04-05T04:54:53.087Z,45.10
2019-04-05T04:57:45.888Z,45.00
2019-04-05T05:00:39.847Z,45.60
2019-04-05T05:03:36.966Z,45.60
2019-04-05T05:06:33.351Z,46.20
2019-04-05T05:09:25.880Z,46.50
2019-04-05T05:12:18.450Z,46.50
2019-04-05T05:15:19.159Z,46.30
2019-04-05T05:18:28.720Z,46.40
2019-04-05T05:21:25.952Z,46.40
2019-04-05T05:24:21.620Z,46.30
2019-04-05T05:27:15.909Z,46.10
2019-04-05T05:30:14.603Z,46.00
2019-04-05T05:33:11.718Z,46.00
2019-04-05T05:36:10.609Z,45.90
2019-04-05T05:39:19.471Z,45.90
2019-04-05T05:42:36.792Z,46.40
2019-04-05T05:45:33.245Z,46.20
2019-04-05T05:48:50.306Z,46.00
2019-04-05T05:51:43.406Z,45.70
2019-04-05T05:58:43.246Z,45.20
2019-04-05T06:02:22.413Z,45.10
2019-04-05T06:09:30.088Z,45.00
2019-04-05T06:12:22.768Z,44.90
2019-04-05T06:15:23.016Z,44.80
2019-04-05T06:18:22.043Z,44.50
2019-04-05T06:21:49.603Z,44.60
2019-04-05T06:24:18.982Z,44.40
2019-04-05T06:27:17.614Z,44.40
2019-04-05T06:30:11.843Z,44.30
2019-04-05T06:33:06.287Z,44.40
2019-04-05T06:36:05.473Z,44.30
2019-04-05T06:39:03.193Z,44.30
2019-04-05T06:42:00.657Z,44.30
2019-04-05T06:44:54.485Z,44.10
2019-04-05T06:47:47.116Z,43.80
2019-04-05T06:50:53.285Z,43.40
2019-04-05T06:53:58.922Z,43.10
2019-04-05T06:57:03.585Z,43.00
2019-04-05T07:00:00.529Z,43.00
2019-04-05T07:02:59.436Z,42.90
2019-04-05T07:06:20.477Z,42.70
2019-04-05T07:09:13.520Z,42.50
2019-04-05T07:12:15.775Z,42.50
2019-04-05T07:15:11.240Z,42.50
2019-04-05T07:18:05.798Z,42.50
2019-04-05T07:21:01.239Z,42.20
2019-04-05T07:24:01.498Z,42.40
2019-04-05T07:27:07.197Z,42.40
2019-04-05T07:30:12.303Z,42.30
2019-04-05T07:33:11.709Z,42.10
2019-04-05T07:36:06.793Z,41.90
2019-04-05T07:39:20.747Z,41.80
2019-04-05T07:42:24.072Z,41.70
2019-04-05T07:45:22.941Z,41.60
2019-04-05T07:48:17.432Z,41.60
2019-04-05T07:51:11.127Z,41.40
2019-04-05T07:54:04.378Z,41.30
2019-04-05T07:56:58.708Z,41.30
2019-04-05T07:59:56.065Z,41.30
2019-04-05T08:02:55.588Z,41.20
2019-04-05T08:05:50.243Z,41.20
2019-04-05T08:09:04.730Z,41.30
2019-04-05T08:12:14.920Z,41.30
2019-04-05T08:15:11.484Z,41.10
2019-04-05T08:18:08.195Z,41.10
2019-04-05T08:21:03.152Z,41.20
2019-04-05T08:23:59.696Z,41.30
2019-04-05T08:26:56.539Z,41.40
2019-04-05T08:29:51.321Z,41.10
2019-04-05T08:32:47.955Z,40.80
2019-04-05T08:35:41.409Z,40.80
2019-04-05T08:38:35.675Z,40.50
2019-04-05T08:41:30.756Z,40.50
2019-04-05T08:44:25.725Z,40.60
2019-04-05T08:47:23.718Z,40.60
2019-04-05T08:50:17.436Z,40.60
2019-04-05T08:53:34.641Z,40.50
2019-04-05T08:56:35.923Z,40.80
2019-04-05T08:59:28.443Z,40.80
2019-04-05T09:02:21.079Z,40.70
2019-04-05T09:05:14.283Z,40.70
2019-04-05T09:08:08.553Z,40.60
2019-04-05T09:11:00.538Z,40.90
2019-04-05T09:13:55.249Z,40.70
2019-04-05T09:16:48.671Z,40.60
2019-04-05T09:19:41.163Z,40.70
2019-04-05T09:22:33.467Z,40.50
2019-04-05T09:25:26.152Z,40.40
2019-04-05T09:28:27.895Z,40.50
2019-04-05T09:31:20.894Z,40.50
2019-04-05T09:34:14.627Z,41.30
2019-04-05T09:37:13.511Z,40.40
2019-04-05T09:40:08.565Z,40.60
2019-04-05T09:43:01.445Z,40.50
2019-04-05T09:45:54.232Z,40.90
2019-04-05T09:48:49.316Z,40.90
2019-04-05T09:51:41.519Z,40.50
2019-04-05T09:54:34.014Z,40.90
2019-04-05T09:57:27.625Z,40.80
2019-04-05T10:00:41.473Z,40.90
2019-04-05T10:03:33.808Z,41.00
2019-04-05T10:06:29.441Z,40.90
2019-04-05T10:09:26.551Z,40.80
2019-04-05T10:12:22.412Z,40.70
2019-04-05T10:15:16.712Z,40.50
2019-04-05T10:18:14.868Z,40.50
2019-04-05T10:21:12.192Z,40.50
2019-04-05T10:24:08.892Z,40.50
2019-04-05T10:27:05.023Z,40.40
2019-04-05T10:30:01.139Z,40.40
2019-04-05T10:32:58.870Z,40.30
2019-04-05T10:35:56.006Z,40.40
2019-04-05T10:38:53.432Z,40.40
2019-04-05T10:42:02.337Z,40.30
2019-04-05T10:44:46.915Z,40.40
2019-04-05T10:47:46.975Z,40.10
2019-04-05T10:50:42.097Z,40.30
2019-04-05T10:53:37.426Z,40.30
2019-04-05T10:56:35.128Z,40.10
2019-04-05T10:59:30.073Z,40.00
2019-04-05T11:02:29.908Z,39.90
2019-04-05T11:05:45.160Z,40.00
2019-04-05T11:08:36.644Z,40.00
2019-04-05T11:11:29.653Z,40.00
2019-04-05T11:14:23.079Z,40.10
2019-04-05T11:17:35.097Z,40.00
2019-04-05T11:21:07.999Z,40.20
2019-04-05T11:24:11.571Z,40.30
2019-04-05T11:27:34.967Z,40.30
2019-04-05T11:31:09.920Z,40.30
2019-04-05T11:34:38.795Z,40.40
2019-04-05T11:37:39.549Z,40.40
2019-04-05T11:40:52.419Z,40.40
2019-04-05T11:43:52.043Z,40.60
2019-04-05T11:46:51.533Z,40.50
2019-04-05T11:49:46.964Z,40.50
2019-04-05T11:52:41.328Z,40.50
2019-04-05T11:55:36.236Z,40.60
2019-04-05T11:58:48.932Z,40.60
2019-04-05T12:02:15.921Z,40.60
2019-04-05T12:05:36.127Z,40.60
2019-04-05T12:09:02.088Z,40.70
2019-04-05T12:12:16.790Z,40.80
2019-04-05T12:15:29.240Z,40.70
2019-04-05T12:18:49.801Z,40.80
2019-04-05T12:21:49.962Z,40.80
2019-04-05T12:24:57.688Z,40.80
2019-04-05T12:28:38.017Z,40.90
2019-04-05T12:31:34.648Z,40.90
2019-04-05T12:34:54.188Z,40.90
2019-04-05T12:38:33.053Z,40.90
2019-04-05T12:45:01.586Z,40.90
2019-04-05T12:48:23.578Z,41.00
2019-04-05T12:51:05.467Z,40.90
2019-04-05T12:54:02.759Z,40.80
2019-04-05T12:56:58.575Z,40.90
2019-04-05T12:59:56.423Z,40.80
2019-04-05T13:02:50.343Z,40.80
2019-04-05T13:05:51.156Z,40.60
2019-04-05T13:12:13.924Z,40.70
2019-04-05T13:15:13.832Z,40.60
2019-04-05T13:18:03.346Z,40.50
2019-04-05T13:20:58.267Z,40.30
2019-04-05T13:23:54.715Z,40.20
2019-04-05T13:26:51.428Z,40.20
2019-04-05T13:29:47.357Z,40.10
2019-04-05T13:32:42.906Z,40.10
2019-04-05T13:35:36.363Z,40.00
2019-04-05T13:38:29.842Z,40.00
2019-04-05T13:41:23.278Z,40.00
2019-04-05T13:44:16.635Z,40.10
2019-04-05T13:47:13.217Z,40.20
2019-04-05T13:50:11.409Z,40.20
2019-04-05T13:53:04.192Z,40.30
2019-04-05T13:55:56.396Z,40.30
2019-04-05T13:58:48.724Z,40.30
2019-04-05T14:01:41.163Z,40.50
2019-04-05T14:04:33.751Z,40.40
2019-04-05T14:07:28.239Z,40.50
2019-04-05T14:10:21.629Z,40.50
2019-04-05T14:13:14.820Z,40.60
2019-04-05T14:16:07.063Z,40.70
2019-04-05T14:19:00.183Z,40.70
2019-04-05T14:21:53.569Z,40.80
2019-04-05T14:24:47.468Z,40.80
2019-04-05T14:27:40.260Z,40.90
2019-04-05T14:30:35.647Z,41.00
2019-04-05T14:33:29.859Z,41.00
2019-04-05T14:36:23.526Z,41.00
2019-04-05T14:39:17.324Z,41.00
2019-04-05T14:42:10.462Z,41.10
2019-04-05T14:45:10.639Z,41.10
2019-04-05T14:48:05.391Z,41.10
2019-04-05T14:50:58.561Z,41.10
2019-04-05T14:53:50.958Z,41.10
2019-04-05T14:56:43.394Z,41.20
2019-04-05T14:59:35.730Z,41.10
2019-04-05T15:02:27.978Z,41.10
2019-04-05T15:05:20.239Z,41.20
2019-04-05T15:08:13.431Z,41.10
2019-04-05T15:11:07.018Z,41.20
2019-04-05T15:13:59.282Z,41.20
2019-04-05T15:16:51.496Z,41.20
2019-04-05T15:19:43.955Z,41.30
2019-04-05T15:22:37.428Z,41.30
2019-04-05T15:25:29.928Z,41.30
2019-04-05T15:28:25.288Z,41.30
2019-04-05T15:31:18.854Z,41.30
2019-04-05T15:34:11.436Z,41.30
2019-04-05T15:37:04.486Z,41.40
2019-04-05T15:40:00.022Z,41.40
2019-04-05T15:42:51.882Z,41.40
2019-04-05T15:45:45.790Z,41.40
2019-04-05T15:48:38.343Z,41.40
2019-04-05T15:51:33.051Z,41.50
2019-04-05T15:54:25.468Z,41.50
2019-04-05T15:57:19.674Z,41.50
2019-04-05T16:00:14.619Z,41.50
2019-04-05T16:03:07.005Z,41.60
2019-04-05T16:06:00.775Z,41.50
2019-04-05T16:08:53.882Z,41.50
2019-04-05T16:11:46.286Z,41.50
2019-04-05T16:14:39.313Z,41.50
2019-04-05T16:17:31.874Z,41.60
2019-04-05T16:20:24.938Z,41.60
2019-04-05T16:23:18.312Z,41.60
2019-04-05T16:26:11.194Z,41.60
2019-04-05T16:29:03.660Z,41.60
2019-04-05T16:31:56.369Z,41.60
2019-04-05T16:34:50.512Z,41.70
2019-04-05T16:37:44.527Z,41.70
2019-04-05T16:40:37.106Z,41.70
2019-04-05T16:43:30.821Z,41.70
2019-04-05T16:46:24.231Z,41.70
2019-04-05T16:49:18.359Z,41.70
2019-04-05T16:52:11.789Z,41.70
2019-04-05T16:55:04.359Z,41.80
2019-04-05T16:57:56.934Z,41.80
2019-04-05T17:00:50.675Z,41.80
2019-04-05T17:03:42.926Z,41.80
2019-04-05T17:06:35.589Z,41.80
2019-04-05T17:09:27.817Z,41.90
2019-04-05T17:12:20.354Z,41.80
2019-04-05T17:15:12.975Z,42.00
2019-04-05T17:18:04.981Z,41.90
2019-04-05T17:20:58.910Z,41.90
2019-04-05T17:23:52.661Z,41.90
2019-04-05T17:26:47.594Z,41.90
2019-04-05T17:29:42.203Z,42.00
2019-04-05T17:32:34.324Z,42.00
2019-04-05T17:35:26.485Z,42.00
2019-04-05T17:38:18.975Z,42.10
2019-04-05T17:41:11.310Z,42.00
2019-04-05T17:44:03.500Z,42.00
2019-04-05T17:46:55.704Z,42.00
2019-04-05T17:49:47.940Z,42.00
2019-04-05T17:52:41.531Z,42.00
2019-04-05T17:55:34.003Z,42.10
2019-04-05T17:58:29.582Z,42.10
2019-04-05T18:01:23.307Z,42.10
2019-04-05T18:04:15.738Z,42.10
2019-04-05T18:07:08.189Z,42.10
2019-04-05T18:10:01.503Z,42.10
2019-04-05T18:12:55.112Z,42.10
2019-04-05T18:15:52.781Z,42.10
2019-04-05T18:18:41.415Z,42.10
2019-04-05T18:21:35.090Z,42.10
2019-04-05T18:24:27.679Z,42.10
2019-04-05T18:27:20.539Z,42.10
2019-04-05T18:30:13.429Z,42.10
2019-04-05T18:33:06.240Z,42.20
2019-04-05T18:35:59.757Z,42.30
2019-04-05T18:38:52.539Z,42.10
2019-04-05T18:41:44.824Z,42.10
2019-04-05T18:44:36.984Z,42.10
2019-04-05T18:47:29.647Z,42.20
2019-04-05T18:50:22.214Z,42.20
2019-04-05T18:53:14.475Z,42.10
2019-04-05T18:56:07.385Z,42.20
2019-04-05T18:59:02.308Z,42.20
2019-04-05T19:01:54.915Z,42.20
2019-04-05T19:04:47.329Z,42.20
2019-04-05T19:07:40.087Z,42.20
2019-04-05T19:10:37.378Z,42.40
2019-04-05T19:13:26.483Z,42.20
2019-04-05T19:16:19.644Z,42.20
2019-04-05T19:19:12.196Z,42.30
2019-04-05T19:22:04.650Z,42.30
2019-04-05T19:24:57.389Z,42.30
2019-04-05T19:27:50.002Z,42.30
2019-04-05T19:50:58.022Z,42.40
2019-04-05T19:54:00.425Z,42.40
2019-04-05T19:56:43.918Z,42.60
2019-04-05T19:59:36.554Z,42.50
2019-04-05T20:02:29.122Z,42.60
2019-04-05T20:05:21.693Z,42.60
2019-04-05T20:08:14.119Z,42.50
2019-04-05T20:11:06.403Z,42.60
2019-04-05T20:13:58.631Z,42.60
2019-04-05T20:16:50.895Z,42.70
2019-04-05T20:19:43.243Z,42.80
2019-04-05T20:22:35.558Z,42.60
2019-04-05T20:25:27.813Z,42.70
2019-04-05T20:28:20.199Z,42.60
2019-04-05T20:31:12.392Z,42.80
2019-04-05T20:34:06.330Z,42.80
2019-04-05T20:36:58.493Z,42.80
2019-04-05T20:39:51.651Z,42.80
2019-04-05T20:42:43.909Z,42.80
2019-04-05T20:45:36.251Z,43.00
2019-04-05T20:48:28.510Z,42.90
2019-04-05T20:51:20.810Z,42.80
2019-04-05T20:54:13.193Z,42.80
2019-04-05T20:57:07.347Z,43.00
2019-04-05T20:59:59.842Z,43.00
2019-04-05T21:02:52.645Z,42.90
2019-04-05T21:05:44.920Z,43.00
2019-04-05T21:08:37.472Z,43.00
2019-04-05T21:11:29.812Z,42.90
2019-04-05T21:14:22.291Z,42.90
2019-04-05T21:17:14.528Z,42.90
2019-04-05T21:20:07.167Z,43.00
2019-04-05T21:22:59.244Z,43.00
2019-04-05T21:25:51.938Z,43.00
2019-04-05T21:28:44.229Z,43.00
2019-04-05T21:31:37.602Z,43.10
2019-04-05T21:34:29.828Z,43.00
2019-04-05T21:37:21.997Z,43.10
2019-04-05T21:40:14.476Z,43.10
2019-04-05T21:43:06.975Z,43.10
2019-04-05T21:45:59.202Z,43.20
2019-04-05T21:48:52.403Z,43.20
2019-04-05T21:51:44.809Z,43.90
2019-04-05T21:54:47.155Z,43.30
2019-04-05T21:57:31.038Z,43.20
2019-04-05T22:00:27.959Z,43.30
2019-04-05T22:03:21.750Z,43.20
2019-04-05T22:06:14.265Z,43.30
2019-04-05T22:09:08.169Z,43.30
2019-04-05T22:12:00.329Z,43.30
2019-04-05T22:14:52.423Z,43.60
2019-04-05T22:17:44.759Z,43.50
2019-04-05T22:20:38.157Z,43.60
2019-04-05T22:23:30.986Z,43.50
2019-04-05T22:26:24.098Z,43.60
2019-04-05T22:29:16.781Z,43.60
2019-04-05T22:32:11.451Z,43.60
2019-04-05T22:35:02.800Z,43.70
2019-04-05T22:37:55.207Z,43.70
2019-04-05T22:40:47.575Z,43.70
2019-04-05T22:43:40.951Z,43.70
2019-04-05T22:46:33.216Z,43.70
2019-04-05T22:49:26.562Z,43.80
2019-04-05T22:52:18.829Z,43.70
2019-04-05T22:55:12.057Z,43.70
2019-04-05T22:58:04.425Z,43.80
2019-04-05T23:00:57.766Z,43.80
2019-04-05T23:03:49.986Z,43.80
2019-04-05T23:06:42.277Z,43.80
2019-04-05T23:09:34.606Z,43.80
2019-04-05T23:12:26.945Z,43.70
2019-04-05T23:15:19.324Z,43.80
2019-04-05T23:18:12.027Z,43.80
2019-04-05T23:21:04.403Z,43.80
2019-04-05T23:23:56.793Z,44.40
2019-04-05T23:26:51.027Z,43.90
2019-04-05T23:29:42.944Z,43.80
2019-04-05T23:32:35.402Z,43.90
2019-04-05T23:35:27.636Z,43.90
2019-04-05T23:38:19.672Z,43.90
2019-04-05T23:41:12.013Z,43.80
2019-04-05T23:44:04.324Z,43.70
2019-04-05T23:46:56.670Z,43.80
2019-04-05T23:49:48.930Z,44.00
2019-04-05T23:52:41.173Z,44.00
2019-04-05T23:55:33.874Z,44.00
2019-04-05T23:58:26.389Z,43.90
